sensor_id;sensor_type;location;lat;lon;timestamp;P1;durP1;ratioP1;P2;durP2;ratioP2
34491;SDS011;20737;49.908;8.126;2023-04-15T00:00:40;2.83;;;1.70;;
34491;SDS011;20737;49.908;8.126;2023-04-15T00:03:07;3.80;;;1.87;;
34491;SDS011;20737;49.908;8.126;2023-04-15T00:05:33;3.43;;;2.00;;
34491;SDS011;20737;49.908;8.126;2023-04-15T00:08:07;3.63;;;1.90;;
34491;SDS011;20737;49.908;8.126;2023-04-15T00:10:34;2.67;;;1.60;;
34491;SDS011;20737;49.908;8.126;2023-04-15T00:13:00;4.87;;;2.10;;
34491;SDS011;20737;49.908;8.126;2023-04-15T00:15:29;4.07;;;2.70;;
34491;SDS011;20737;49.908;8.126;2023-04-15T00:17:56;4.07;;;1.87;;
34491;SDS011;20737;49.908;8.126;2023-04-15T00:20:23;4.77;;;2.30;;
34491;SDS011;20737;49.908;8.126;2023-04-15T00:22:50;3.53;;;1.80;;
34491;SDS011;20737;49.908;8.126;2023-04-15T00:25:17;3.20;;;1.90;;
34491;SDS011;20737;49.908;8.126;2023-04-15T00:27:44;3.20;;;2.00;;
34491;SDS011;20737;49.908;8.126;2023-04-15T00:30:11;6.60;;;1.70;;
34491;SDS011;20737;49.908;8.126;2023-04-15T00:32:39;2.23;;;1.07;;
34491;SDS011;20737;49.908;8.126;2023-04-15T00:35:06;2.73;;;1.57;;
34491;SDS011;20737;49.908;8.126;2023-04-15T00:37:33;2.27;;;1.33;;
34491;SDS011;20737;49.908;8.126;2023-04-15T00:40:01;1.63;;;1.40;;
34491;SDS011;20737;49.908;8.126;2023-04-15T00:42:29;3.30;;;1.53;;
34491;SDS011;20737;49.908;8.126;2023-04-15T00:44:55;2.23;;;1.77;;
34491;SDS011;20737;49.908;8.126;2023-04-15T00:47:22;2.67;;;1.47;;
34491;SDS011;20737;49.908;8.126;2023-04-15T00:49:50;2.80;;;1.70;;
34491;SDS011;20737;49.908;8.126;2023-04-15T00:52:17;1.87;;;1.40;;
34491;SDS011;20737;49.908;8.126;2023-04-15T00:54:44;2.60;;;1.67;;
34491;SDS011;20737;49.908;8.126;2023-04-15T00:57:10;2.00;;;1.50;;
34491;SDS011;20737;49.908;8.126;2023-04-15T00:59:37;2.63;;;1.50;;
34491;SDS011;20737;49.908;8.126;2023-04-15T01:02:04;3.43;;;1.77;;
34491;SDS011;20737;49.908;8.126;2023-04-15T01:04:32;4.57;;;1.60;;
34491;SDS011;20737;49.908;8.126;2023-04-15T01:07:00;4.13;;;1.70;;
34491;SDS011;20737;49.908;8.126;2023-04-15T01:09:26;2.87;;;1.20;;
34491;SDS011;20737;49.908;8.126;2023-04-15T01:11:53;2.13;;;1.30;;
34491;SDS011;20737;49.908;8.126;2023-04-15T01:14:21;3.03;;;1.63;;
34491;SDS011;20737;49.908;8.126;2023-04-15T01:16:48;2.23;;;1.30;;
34491;SDS011;20737;49.908;8.126;2023-04-15T01:19:15;2.70;;;1.40;;
34491;SDS011;20737;49.908;8.126;2023-04-15T01:21:42;1.83;;;1.50;;
34491;SDS011;20737;49.908;8.126;2023-04-15T01:24:11;2.50;;;1.60;;
34491;SDS011;20737;49.908;8.126;2023-04-15T01:26:42;1.83;;;1.60;;
34491;SDS011;20737;49.908;8.126;2023-04-15T01:29:08;3.40;;;1.97;;
34491;SDS011;20737;49.908;8.126;2023-04-15T01:31:35;3.30;;;1.53;;
34491;SDS011;20737;49.908;8.126;2023-04-15T01:34:02;4.13;;;1.37;;
34491;SDS011;20737;49.908;8.126;2023-04-15T01:36:29;5.20;;;1.67;;
34491;SDS011;20737;49.908;8.126;2023-04-15T01:38:56;1.73;;;1.37;;
34491;SDS011;20737;49.908;8.126;2023-04-15T01:41:24;3.80;;;1.87;;
34491;SDS011;20737;49.908;8.126;2023-04-15T01:43:53;6.03;;;1.80;;
34491;SDS011;20737;49.908;8.126;2023-04-15T01:46:21;3.93;;;1.60;;
34491;SDS011;20737;49.908;8.126;2023-04-15T01:48:48;2.00;;;1.30;;
34491;SDS011;20737;49.908;8.126;2023-04-15T01:51:14;2.53;;;1.70;;
34491;SDS011;20737;49.908;8.126;2023-04-15T01:53:41;6.97;;;1.63;;
34491;SDS011;20737;49.908;8.126;2023-04-15T01:56:08;2.90;;;1.80;;
34491;SDS011;20737;49.908;8.126;2023-04-15T01:58:35;1.70;;;1.60;;
34491;SDS011;20737;49.908;8.126;2023-04-15T02:01:03;2.77;;;1.30;;
34491;SDS011;20737;49.908;8.126;2023-04-15T02:03:30;3.67;;;1.40;;
34491;SDS011;20737;49.908;8.126;2023-04-15T02:05:56;5.43;;;1.80;;
34491;SDS011;20737;49.908;8.126;2023-04-15T02:08:23;2.10;;;1.60;;
34491;SDS011;20737;49.908;8.126;2023-04-15T02:10:50;2.57;;;1.50;;
34491;SDS011;20737;49.908;8.126;2023-04-15T02:13:17;3.43;;;1.77;;
34491;SDS011;20737;49.908;8.126;2023-04-15T02:15:46;3.73;;;1.60;;
34491;SDS011;20737;49.908;8.126;2023-04-15T02:18:15;4.87;;;2.00;;
34491;SDS011;20737;49.908;8.126;2023-04-15T02:20:41;4.37;;;2.33;;
34491;SDS011;20737;49.908;8.126;2023-04-15T02:23:09;2.07;;;1.60;;
34491;SDS011;20737;49.908;8.126;2023-04-15T02:25:36;3.47;;;1.77;;
34491;SDS011;20737;49.908;8.126;2023-04-15T02:28:03;2.30;;;1.57;;
34491;SDS011;20737;49.908;8.126;2023-04-15T02:30:31;3.33;;;1.83;;
34491;SDS011;20737;49.908;8.126;2023-04-15T02:32:58;3.83;;;2.03;;
34491;SDS011;20737;49.908;8.126;2023-04-15T02:35:26;2.47;;;1.63;;
34491;SDS011;20737;49.908;8.126;2023-04-15T02:37:53;8.90;;;1.93;;
34491;SDS011;20737;49.908;8.126;2023-04-15T02:40:20;3.40;;;1.80;;
34491;SDS011;20737;49.908;8.126;2023-04-15T02:42:47;1.53;;;1.10;;
34491;SDS011;20737;49.908;8.126;2023-04-15T02:45:16;6.63;;;1.50;;
34491;SDS011;20737;49.908;8.126;2023-04-15T02:47:47;2.83;;;1.37;;
34491;SDS011;20737;49.908;8.126;2023-04-15T02:50:14;5.00;;;1.53;;
34491;SDS011;20737;49.908;8.126;2023-04-15T02:52:42;3.70;;;1.90;;
34491;SDS011;20737;49.908;8.126;2023-04-15T02:55:09;2.73;;;1.83;;
34491;SDS011;20737;49.908;8.126;2023-04-15T02:57:36;3.70;;;1.80;;
34491;SDS011;20737;49.908;8.126;2023-04-15T03:00:05;3.07;;;1.60;;
34491;SDS011;20737;49.908;8.126;2023-04-15T03:02:34;1.20;;;1.10;;
34491;SDS011;20737;49.908;8.126;2023-04-15T03:05:03;2.40;;;1.10;;
34491;SDS011;20737;49.908;8.126;2023-04-15T03:07:31;2.80;;;1.37;;
34491;SDS011;20737;49.908;8.126;2023-04-15T03:09:59;3.00;;;1.20;;
34491;SDS011;20737;49.908;8.126;2023-04-15T03:12:26;1.97;;;1.20;;
34491;SDS011;20737;49.908;8.126;2023-04-15T03:14:54;4.03;;;1.83;;
34491;SDS011;20737;49.908;8.126;2023-04-15T03:17:21;1.63;;;1.40;;
34491;SDS011;20737;49.908;8.126;2023-04-15T03:19:47;2.03;;;1.37;;
34491;SDS011;20737;49.908;8.126;2023-04-15T03:22:14;2.70;;;1.03;;
34491;SDS011;20737;49.908;8.126;2023-04-15T03:24:41;1.67;;;1.57;;
34491;SDS011;20737;49.908;8.126;2023-04-15T03:27:09;3.33;;;1.67;;
34491;SDS011;20737;49.908;8.126;2023-04-15T03:29:37;3.23;;;1.67;;
34491;SDS011;20737;49.908;8.126;2023-04-15T03:32:06;3.70;;;1.60;;
34491;SDS011;20737;49.908;8.126;2023-04-15T03:34:33;2.97;;;1.40;;
34491;SDS011;20737;49.908;8.126;2023-04-15T03:37:00;4.10;;;1.27;;
34491;SDS011;20737;49.908;8.126;2023-04-15T03:39:26;3.00;;;1.43;;
34491;SDS011;20737;49.908;8.126;2023-04-15T03:41:53;2.90;;;1.30;;
34491;SDS011;20737;49.908;8.126;2023-04-15T03:44:21;4.40;;;1.40;;
34491;SDS011;20737;49.908;8.126;2023-04-15T03:46:48;2.60;;;1.67;;
34491;SDS011;20737;49.908;8.126;2023-04-15T03:49:15;2.13;;;1.40;;
34491;SDS011;20737;49.908;8.126;2023-04-15T03:51:43;5.80;;;1.50;;
34491;SDS011;20737;49.908;8.126;2023-04-15T03:54:11;3.13;;;1.50;;
34491;SDS011;20737;49.908;8.126;2023-04-15T03:56:39;3.73;;;1.53;;
34491;SDS011;20737;49.908;8.126;2023-04-15T03:59:06;1.50;;;1.20;;
34491;SDS011;20737;49.908;8.126;2023-04-15T04:01:34;3.03;;;1.50;;
34491;SDS011;20737;49.908;8.126;2023-04-15T04:04:01;4.90;;;1.40;;
34491;SDS011;20737;49.908;8.126;2023-04-15T04:06:27;1.47;;;1.13;;
34491;SDS011;20737;49.908;8.126;2023-04-15T04:08:55;2.27;;;1.40;;
34491;SDS011;20737;49.908;8.126;2023-04-15T04:11:21;2.00;;;1.70;;
34491;SDS011;20737;49.908;8.126;2023-04-15T04:13:52;2.10;;;1.40;;
34491;SDS011;20737;49.908;8.126;2023-04-15T04:16:18;2.70;;;1.63;;
34491;SDS011;20737;49.908;8.126;2023-04-15T04:18:46;2.17;;;1.30;;
34491;SDS011;20737;49.908;8.126;2023-04-15T04:21:13;4.03;;;1.30;;
34491;SDS011;20737;49.908;8.126;2023-04-15T04:23:40;3.03;;;1.70;;
34491;SDS011;20737;49.908;8.126;2023-04-15T04:26:07;3.97;;;1.70;;
34491;SDS011;20737;49.908;8.126;2023-04-15T04:28:33;3.37;;;1.70;;
34491;SDS011;20737;49.908;8.126;2023-04-15T04:31:00;1.90;;;1.30;;
34491;SDS011;20737;49.908;8.126;2023-04-15T04:33:27;2.73;;;1.33;;
34491;SDS011;20737;49.908;8.126;2023-04-15T04:35:55;1.50;;;1.10;;
34491;SDS011;20737;49.908;8.126;2023-04-15T04:38:22;5.23;;;1.93;;
34491;SDS011;20737;49.908;8.126;2023-04-15T04:40:50;2.10;;;1.50;;
34491;SDS011;20737;49.908;8.126;2023-04-15T04:43:17;2.33;;;1.20;;
34491;SDS011;20737;49.908;8.126;2023-04-15T04:45:44;2.57;;;1.47;;
34491;SDS011;20737;49.908;8.126;2023-04-15T04:48:10;7.23;;;1.80;;
34491;SDS011;20737;49.908;8.126;2023-04-15T04:50:37;3.40;;;1.73;;
34491;SDS011;20737;49.908;8.126;2023-04-15T04:53:05;3.40;;;2.07;;
34491;SDS011;20737;49.908;8.126;2023-04-15T04:55:32;2.17;;;1.80;;
34491;SDS011;20737;49.908;8.126;2023-04-15T04:58:00;2.53;;;1.40;;
34491;SDS011;20737;49.908;8.126;2023-04-15T05:00:27;2.13;;;1.47;;
34491;SDS011;20737;49.908;8.126;2023-04-15T05:02:54;3.83;;;1.20;;
34491;SDS011;20737;49.908;8.126;2023-04-15T05:05:21;2.83;;;1.73;;
34491;SDS011;20737;49.908;8.126;2023-04-15T05:07:48;2.70;;;1.70;;
34491;SDS011;20737;49.908;8.126;2023-04-15T05:10:19;2.00;;;1.43;;
34491;SDS011;20737;49.908;8.126;2023-04-15T05:12:45;4.27;;;1.77;;
34491;SDS011;20737;49.908;8.126;2023-04-15T05:15:12;3.33;;;1.93;;
34491;SDS011;20737;49.908;8.126;2023-04-15T05:17:39;2.70;;;1.70;;
34491;SDS011;20737;49.908;8.126;2023-04-15T05:20:06;2.70;;;1.37;;
34491;SDS011;20737;49.908;8.126;2023-04-15T05:22:33;4.80;;;1.93;;
34491;SDS011;20737;49.908;8.126;2023-04-15T05:25:00;3.93;;;1.90;;
34491;SDS011;20737;49.908;8.126;2023-04-15T05:27:28;3.60;;;1.90;;
34491;SDS011;20737;49.908;8.126;2023-04-15T05:29:55;3.37;;;1.73;;
34491;SDS011;20737;49.908;8.126;2023-04-15T05:32:22;2.93;;;2.07;;
34491;SDS011;20737;49.908;8.126;2023-04-15T05:34:49;2.07;;;1.53;;
34491;SDS011;20737;49.908;8.126;2023-04-15T05:37:16;2.00;;;1.40;;
34491;SDS011;20737;49.908;8.126;2023-04-15T05:39:44;2.60;;;1.70;;
34491;SDS011;20737;49.908;8.126;2023-04-15T05:42:12;2.50;;;1.63;;
34491;SDS011;20737;49.908;8.126;2023-04-15T05:44:40;6.83;;;2.47;;
34491;SDS011;20737;49.908;8.126;2023-04-15T05:47:07;2.50;;;1.53;;
34491;SDS011;20737;49.908;8.126;2023-04-15T05:49:34;3.80;;;2.47;;
34491;SDS011;20737;49.908;8.126;2023-04-15T05:52:01;3.07;;;2.17;;
34491;SDS011;20737;49.908;8.126;2023-04-15T05:54:28;3.30;;;2.20;;
34491;SDS011;20737;49.908;8.126;2023-04-15T05:56:55;2.13;;;1.87;;
34491;SDS011;20737;49.908;8.126;2023-04-15T05:59:22;4.80;;;2.53;;
34491;SDS011;20737;49.908;8.126;2023-04-15T06:01:50;3.83;;;2.10;;
34491;SDS011;20737;49.908;8.126;2023-04-15T06:04:17;3.23;;;2.10;;
34491;SDS011;20737;49.908;8.126;2023-04-15T06:06:44;3.13;;;2.00;;
34491;SDS011;20737;49.908;8.126;2023-04-15T06:09:11;5.00;;;2.43;;
34491;SDS011;20737;49.908;8.126;2023-04-15T06:11:37;3.40;;;2.23;;
34491;SDS011;20737;49.908;8.126;2023-04-15T06:14:05;3.03;;;2.20;;
34491;SDS011;20737;49.908;8.126;2023-04-15T06:16:32;5.30;;;2.67;;
34491;SDS011;20737;49.908;8.126;2023-04-15T06:19:02;5.60;;;2.33;;
34491;SDS011;20737;49.908;8.126;2023-04-15T06:21:28;8.03;;;2.43;;
34491;SDS011;20737;49.908;8.126;2023-04-15T06:23:55;4.80;;;2.40;;
34491;SDS011;20737;49.908;8.126;2023-04-15T06:26:23;4.60;;;2.43;;
34491;SDS011;20737;49.908;8.126;2023-04-15T06:28:50;3.30;;;2.33;;
34491;SDS011;20737;49.908;8.126;2023-04-15T06:31:17;3.73;;;2.10;;
34491;SDS011;20737;49.908;8.126;2023-04-15T06:33:44;3.47;;;2.45;;
34491;SDS011;20737;49.908;8.126;2023-04-15T06:36:12;3.95;;;2.20;;
34491;SDS011;20737;49.908;8.126;2023-04-15T06:38:39;6.63;;;2.55;;
34491;SDS011;20737;49.908;8.126;2023-04-15T06:41:06;3.40;;;2.20;;
34491;SDS011;20737;49.908;8.126;2023-04-15T06:43:34;5.10;;;2.67;;
34491;SDS011;20737;49.908;8.126;2023-04-15T06:46:01;5.07;;;2.72;;
34491;SDS011;20737;49.908;8.126;2023-04-15T06:48:28;5.40;;;2.50;;
34491;SDS011;20737;49.908;8.126;2023-04-15T06:50:55;6.63;;;2.50;;
34491;SDS011;20737;49.908;8.126;2023-04-15T06:53:23;5.47;;;3.00;;
34491;SDS011;20737;49.908;8.126;2023-04-15T06:55:50;5.00;;;2.72;;
34491;SDS011;20737;49.908;8.126;2023-04-15T06:58:17;4.03;;;2.05;;
34491;SDS011;20737;49.908;8.126;2023-04-15T07:00:44;4.68;;;2.33;;
34491;SDS011;20737;49.908;8.126;2023-04-15T07:03:11;5.22;;;2.75;;
34491;SDS011;20737;49.908;8.126;2023-04-15T07:05:39;4.47;;;2.67;;
34491;SDS011;20737;49.908;8.126;2023-04-15T07:08:06;4.72;;;2.88;;
34491;SDS011;20737;49.908;8.126;2023-04-15T07:10:34;5.50;;;2.88;;
34491;SDS011;20737;49.908;8.126;2023-04-15T07:13:01;4.32;;;2.83;;
34491;SDS011;20737;49.908;8.126;2023-04-15T07:15:27;4.88;;;2.95;;
34491;SDS011;20737;49.908;8.126;2023-04-15T07:17:54;5.93;;;3.25;;
34491;SDS011;20737;49.908;8.126;2023-04-15T07:20:21;5.57;;;3.33;;
34491;SDS011;20737;49.908;8.126;2023-04-15T07:22:49;5.13;;;3.15;;
34491;SDS011;20737;49.908;8.126;2023-04-15T07:25:16;3.85;;;3.08;;
34491;SDS011;20737;49.908;8.126;2023-04-15T07:27:44;10.60;;;4.03;;
34491;SDS011;20737;49.908;8.126;2023-04-15T07:30:11;6.57;;;3.60;;
34491;SDS011;20737;49.908;8.126;2023-04-15T07:32:38;5.18;;;3.90;;
34491;SDS011;20737;49.908;8.126;2023-04-15T07:35:05;7.50;;;3.88;;
34491;SDS011;20737;49.908;8.126;2023-04-15T07:37:32;6.65;;;3.55;;
34491;SDS011;20737;49.908;8.126;2023-04-15T07:40:01;4.68;;;3.05;;
34491;SDS011;20737;49.908;8.126;2023-04-15T07:44:56;4.50;;;2.78;;
34491;SDS011;20737;49.908;8.126;2023-04-15T07:47:23;5.28;;;3.13;;
34491;SDS011;20737;49.908;8.126;2023-04-15T07:49:51;4.68;;;3.25;;
34491;SDS011;20737;49.908;8.126;2023-04-15T07:52:17;7.53;;;3.05;;
34491;SDS011;20737;49.908;8.126;2023-04-15T07:54:44;5.05;;;3.00;;
34491;SDS011;20737;49.908;8.126;2023-04-15T07:57:11;7.82;;;2.92;;
34491;SDS011;20737;49.908;8.126;2023-04-15T07:59:37;7.35;;;3.08;;
34491;SDS011;20737;49.908;8.126;2023-04-15T08:02:06;6.68;;;3.70;;
34491;SDS011;20737;49.908;8.126;2023-04-15T08:04:33;7.45;;;3.30;;
34491;SDS011;20737;49.908;8.126;2023-04-15T08:07:00;3.90;;;3.10;;
34491;SDS011;20737;49.908;8.126;2023-04-15T08:09:29;5.07;;;2.95;;
34491;SDS011;20737;49.908;8.126;2023-04-15T08:11:56;7.45;;;2.97;;
34491;SDS011;20737;49.908;8.126;2023-04-15T08:14:25;4.85;;;3.30;;
34491;SDS011;20737;49.908;8.126;2023-04-15T08:16:52;4.30;;;2.90;;
34491;SDS011;20737;49.908;8.126;2023-04-15T08:19:20;6.00;;;2.53;;
34491;SDS011;20737;49.908;8.126;2023-04-15T08:21:48;3.72;;;2.50;;
34491;SDS011;20737;49.908;8.126;2023-04-15T08:24:15;4.07;;;2.72;;
34491;SDS011;20737;49.908;8.126;2023-04-15T08:26:42;3.97;;;2.33;;
34491;SDS011;20737;49.908;8.126;2023-04-15T08:29:08;4.50;;;3.38;;
34491;SDS011;20737;49.908;8.126;2023-04-15T08:31:35;6.88;;;3.25;;
34491;SDS011;20737;49.908;8.126;2023-04-15T08:34:02;5.22;;;3.03;;
34491;SDS011;20737;49.908;8.126;2023-04-15T08:36:30;4.55;;;2.67;;
34491;SDS011;20737;49.908;8.126;2023-04-15T08:38:59;3.88;;;2.45;;
34491;SDS011;20737;49.908;8.126;2023-04-15T08:41:28;3.53;;;2.45;;
34491;SDS011;20737;49.908;8.126;2023-04-15T08:44:03;5.90;;;2.78;;
34491;SDS011;20737;49.908;8.126;2023-04-15T08:46:30;5.72;;;2.65;;
34491;SDS011;20737;49.908;8.126;2023-04-15T08:48:58;3.40;;;2.67;;
34491;SDS011;20737;49.908;8.126;2023-04-15T08:51:28;5.80;;;2.30;;
34491;SDS011;20737;49.908;8.126;2023-04-15T08:53:57;4.22;;;2.38;;
34491;SDS011;20737;49.908;8.126;2023-04-15T08:56:24;3.78;;;2.28;;
34491;SDS011;20737;49.908;8.126;2023-04-15T08:58:52;5.55;;;2.53;;
34491;SDS011;20737;49.908;8.126;2023-04-15T09:01:19;5.35;;;2.90;;
34491;SDS011;20737;49.908;8.126;2023-04-15T09:03:46;5.20;;;3.25;;
34491;SDS011;20737;49.908;8.126;2023-04-15T09:06:14;4.35;;;2.63;;
34491;SDS011;20737;49.908;8.126;2023-04-15T09:08:45;5.00;;;2.88;;
34491;SDS011;20737;49.908;8.126;2023-04-15T09:11:13;3.88;;;2.75;;
34491;SDS011;20737;49.908;8.126;2023-04-15T09:13:41;6.82;;;2.83;;
34491;SDS011;20737;49.908;8.126;2023-04-15T09:16:08;4.45;;;2.90;;
34491;SDS011;20737;49.908;8.126;2023-04-15T09:18:35;4.07;;;3.08;;
34491;SDS011;20737;49.908;8.126;2023-04-15T09:21:04;4.38;;;3.05;;
34491;SDS011;20737;49.908;8.126;2023-04-15T09:23:33;4.25;;;3.00;;
34491;SDS011;20737;49.908;8.126;2023-04-15T09:26:03;4.68;;;3.03;;
34491;SDS011;20737;49.908;8.126;2023-04-15T09:28:32;5.45;;;3.42;;
34491;SDS011;20737;49.908;8.126;2023-04-15T09:31:06;5.22;;;3.45;;
34491;SDS011;20737;49.908;8.126;2023-04-15T09:33:34;4.18;;;3.20;;
34491;SDS011;20737;49.908;8.126;2023-04-15T09:36:01;5.40;;;3.42;;
34491;SDS011;20737;49.908;8.126;2023-04-15T09:38:29;3.38;;;2.90;;
34491;SDS011;20737;49.908;8.126;2023-04-15T09:40:57;4.35;;;3.00;;
34491;SDS011;20737;49.908;8.126;2023-04-15T09:43:37;4.05;;;2.92;;
34491;SDS011;20737;49.908;8.126;2023-04-15T09:46:04;4.75;;;2.65;;
34491;SDS011;20737;49.908;8.126;2023-04-15T09:48:33;4.32;;;2.50;;
34491;SDS011;20737;49.908;8.126;2023-04-15T09:51:02;3.42;;;2.60;;
34491;SDS011;20737;49.908;8.126;2023-04-15T09:53:29;2.78;;;2.33;;
34491;SDS011;20737;49.908;8.126;2023-04-15T09:55:59;3.00;;;2.28;;
34491;SDS011;20737;49.908;8.126;2023-04-15T09:58:27;2.28;;;1.83;;
34491;SDS011;20737;49.908;8.126;2023-04-15T10:00:58;3.80;;;1.98;;
34491;SDS011;20737;49.908;8.126;2023-04-15T10:03:27;2.95;;;1.63;;
34491;SDS011;20737;49.908;8.126;2023-04-15T10:05:57;3.45;;;1.92;;
34491;SDS011;20737;49.908;8.126;2023-04-15T10:08:25;2.22;;;1.50;;
34491;SDS011;20737;49.908;8.126;2023-04-15T10:10:53;4.47;;;2.00;;
34491;SDS011;20737;49.908;8.126;2023-04-15T10:13:20;3.97;;;1.50;;
34491;SDS011;20737;49.908;8.126;2023-04-15T10:15:49;3.10;;;1.40;;
34491;SDS011;20737;49.908;8.126;2023-04-15T10:18:19;3.00;;;1.55;;
34491;SDS011;20737;49.908;8.126;2023-04-15T10:20:48;2.30;;;1.20;;
34491;SDS011;20737;49.908;8.126;2023-04-15T10:23:16;2.75;;;1.10;;
34491;SDS011;20737;49.908;8.126;2023-04-15T10:25:44;1.88;;;1.10;;
34491;SDS011;20737;49.908;8.126;2023-04-15T10:28:11;2.08;;;1.23;;
34491;SDS011;20737;49.908;8.126;2023-04-15T10:30:40;2.97;;;1.58;;
34491;SDS011;20737;49.908;8.126;2023-04-15T10:33:12;1.77;;;1.13;;
34491;SDS011;20737;49.908;8.126;2023-04-15T10:35:41;1.77;;;1.00;;
34491;SDS011;20737;49.908;8.126;2023-04-15T10:41:03;2.67;;;1.20;;
34491;SDS011;20737;49.908;8.126;2023-04-15T10:43:37;1.98;;;1.02;;
34491;SDS011;20737;49.908;8.126;2023-04-15T10:46:04;1.40;;;1.30;;
34491;SDS011;20737;49.908;8.126;2023-04-15T10:48:31;3.45;;;1.02;;
34491;SDS011;20737;49.908;8.126;2023-04-15T10:51:00;4.95;;;1.20;;
34491;SDS011;20737;49.908;8.126;2023-04-15T10:53:27;1.92;;;1.00;;
34491;SDS011;20737;49.908;8.126;2023-04-15T10:55:55;1.75;;;1.10;;
34491;SDS011;20737;49.908;8.126;2023-04-15T10:58:23;1.35;;;1.00;;
34491;SDS011;20737;49.908;8.126;2023-04-15T11:00:50;1.77;;;1.15;;
34491;SDS011;20737;49.908;8.126;2023-04-15T11:03:33;2.15;;;0.98;;
34491;SDS011;20737;49.908;8.126;2023-04-15T11:06:04;1.23;;;1.10;;
34491;SDS011;20737;49.908;8.126;2023-04-15T11:11:22;2.17;;;1.15;;
34491;SDS011;20737;49.908;8.126;2023-04-15T11:14:13;2.28;;;1.10;;
34491;SDS011;20737;49.908;8.126;2023-04-15T11:16:41;1.10;;;0.98;;
34491;SDS011;20737;49.908;8.126;2023-04-15T11:19:08;2.00;;;0.80;;
34491;SDS011;20737;49.908;8.126;2023-04-15T11:21:37;2.67;;;1.38;;
34491;SDS011;20737;49.908;8.126;2023-04-15T11:24:04;2.25;;;1.38;;
34491;SDS011;20737;49.908;8.126;2023-04-15T11:26:30;1.98;;;1.00;;
34491;SDS011;20737;49.908;8.126;2023-04-15T11:28:57;1.23;;;1.10;;
34491;SDS011;20737;49.908;8.126;2023-04-15T11:31:25;2.30;;;1.10;;
34491;SDS011;20737;49.908;8.126;2023-04-15T11:33:53;3.10;;;1.20;;
34491;SDS011;20737;49.908;8.126;2023-04-15T11:36:23;2.33;;;1.40;;
34491;SDS011;20737;49.908;8.126;2023-04-15T11:38:56;1.77;;;0.85;;
34491;SDS011;20737;49.908;8.126;2023-04-15T11:41:24;3.93;;;0.90;;
34491;SDS011;20737;49.908;8.126;2023-04-15T11:43:51;2.15;;;0.60;;
34491;SDS011;20737;49.908;8.126;2023-04-15T11:46:18;1.67;;;0.98;;
34491;SDS011;20737;49.908;8.126;2023-04-15T11:48:45;1.42;;;0.90;;
34491;SDS011;20737;49.908;8.126;2023-04-15T11:51:13;1.70;;;1.00;;
34491;SDS011;20737;49.908;8.126;2023-04-15T11:53:43;3.22;;;1.02;;
34491;SDS011;20737;49.908;8.126;2023-04-15T11:56:17;1.63;;;0.80;;
34491;SDS011;20737;49.908;8.126;2023-04-15T12:01:12;1.50;;;0.77;;
34491;SDS011;20737;49.908;8.126;2023-04-15T12:03:39;0.95;;;0.85;;
34491;SDS011;20737;49.908;8.126;2023-04-15T12:06:12;3.75;;;0.95;;
34491;SDS011;20737;49.908;8.126;2023-04-15T12:08:56;0.68;;;0.65;;
34491;SDS011;20737;49.908;8.126;2023-04-15T12:14:21;1.52;;;0.70;;
34491;SDS011;20737;49.908;8.126;2023-04-15T12:16:51;0.50;;;0.50;;
34491;SDS011;20737;49.908;8.126;2023-04-15T12:19:22;1.17;;;0.63;;
34491;SDS011;20737;49.908;8.126;2023-04-15T12:21:50;1.13;;;0.63;;
34491;SDS011;20737;49.908;8.126;2023-04-15T12:24:19;1.50;;;0.57;;
34491;SDS011;20737;49.908;8.126;2023-04-15T12:26:49;2.45;;;0.65;;
34491;SDS011;20737;49.908;8.126;2023-04-15T12:29:17;0.70;;;0.70;;
34491;SDS011;20737;49.908;8.126;2023-04-15T12:31:47;1.90;;;0.70;;
34491;SDS011;20737;49.908;8.126;2023-04-15T12:34:15;1.80;;;0.93;;
34491;SDS011;20737;49.908;8.126;2023-04-15T12:36:42;1.02;;;0.80;;
34491;SDS011;20737;49.908;8.126;2023-04-15T12:39:09;0.68;;;0.68;;
34491;SDS011;20737;49.908;8.126;2023-04-15T12:41:36;0.80;;;0.70;;
34491;SDS011;20737;49.908;8.126;2023-04-15T12:44:04;0.50;;;0.50;;
34491;SDS011;20737;49.908;8.126;2023-04-15T12:46:31;0.60;;;0.60;;
34491;SDS011;20737;49.908;8.126;2023-04-15T12:48:57;0.50;;;0.50;;
34491;SDS011;20737;49.908;8.126;2023-04-15T12:51:24;0.50;;;0.50;;
34491;SDS011;20737;49.908;8.126;2023-04-15T12:53:52;1.23;;;0.57;;
34491;SDS011;20737;49.908;8.126;2023-04-15T12:56:20;3.85;;;0.70;;
34491;SDS011;20737;49.908;8.126;2023-04-15T12:58:47;0.43;;;0.43;;
34491;SDS011;20737;49.908;8.126;2023-04-15T13:01:16;1.88;;;0.63;;
34491;SDS011;20737;49.908;8.126;2023-04-15T13:03:43;1.35;;;0.47;;
34491;SDS011;20737;49.908;8.126;2023-04-15T13:06:10;2.15;;;0.60;;
34491;SDS011;20737;49.908;8.126;2023-04-15T13:08:37;1.67;;;0.70;;
34491;SDS011;20737;49.908;8.126;2023-04-15T13:11:04;1.52;;;0.50;;
34491;SDS011;20737;49.908;8.126;2023-04-15T13:13:34;1.42;;;0.60;;
34491;SDS011;20737;49.908;8.126;2023-04-15T13:16:00;1.13;;;0.60;;
34491;SDS011;20737;49.908;8.126;2023-04-15T13:18:29;0.68;;;0.60;;
34491;SDS011;20737;49.908;8.126;2023-04-15T13:20:56;0.50;;;0.50;;
34491;SDS011;20737;49.908;8.126;2023-04-15T13:23:25;3.50;;;0.70;;
34491;SDS011;20737;49.908;8.126;2023-04-15T13:25:52;0.90;;;0.60;;
34491;SDS011;20737;49.908;8.126;2023-04-15T13:28:19;0.50;;;0.50;;
34491;SDS011;20737;49.908;8.126;2023-04-15T13:30:46;0.82;;;0.70;;
34491;SDS011;20737;49.908;8.126;2023-04-15T13:33:13;1.30;;;1.15;;
34491;SDS011;20737;49.908;8.126;2023-04-15T13:35:42;1.20;;;0.60;;
34491;SDS011;20737;49.908;8.126;2023-04-15T13:38:09;0.60;;;0.57;;
34491;SDS011;20737;49.908;8.126;2023-04-15T13:40:36;0.63;;;0.60;;
34491;SDS011;20737;49.908;8.126;2023-04-15T13:43:03;0.60;;;0.60;;
34491;SDS011;20737;49.908;8.126;2023-04-15T13:45:30;0.60;;;0.60;;
34491;SDS011;20737;49.908;8.126;2023-04-15T13:47:57;0.88;;;0.70;;
34491;SDS011;20737;49.908;8.126;2023-04-15T13:50:23;0.60;;;0.60;;
34491;SDS011;20737;49.908;8.126;2023-04-15T13:52:51;0.73;;;0.73;;
34491;SDS011;20737;49.908;8.126;2023-04-15T13:55:18;0.70;;;0.70;;
34491;SDS011;20737;49.908;8.126;2023-04-15T13:57:45;1.45;;;1.35;;
34491;SDS011;20737;49.908;8.126;2023-04-15T14:00:12;0.85;;;0.85;;
34491;SDS011;20737;49.908;8.126;2023-04-15T14:02:39;1.13;;;1.10;;
34491;SDS011;20737;49.908;8.126;2023-04-15T14:05:06;2.90;;;0.90;;
34491;SDS011;20737;49.908;8.126;2023-04-15T14:07:34;0.95;;;0.70;;
34491;SDS011;20737;49.908;8.126;2023-04-15T14:10:02;0.70;;;0.70;;
34491;SDS011;20737;49.908;8.126;2023-04-15T14:12:30;0.55;;;0.55;;
34491;SDS011;20737;49.908;8.126;2023-04-15T14:14:56;1.75;;;0.93;;
34491;SDS011;20737;49.908;8.126;2023-04-15T14:17:23;0.82;;;0.70;;
34491;SDS011;20737;49.908;8.126;2023-04-15T14:19:50;1.13;;;0.70;;
34491;SDS011;20737;49.908;8.126;2023-04-15T14:22:17;0.70;;;0.70;;
34491;SDS011;20737;49.908;8.126;2023-04-15T14:24:43;1.45;;;1.10;;
34491;SDS011;20737;49.908;8.126;2023-04-15T14:27:14;1.33;;;0.77;;
34491;SDS011;20737;49.908;8.126;2023-04-15T14:29:40;0.77;;;0.70;;
34491;SDS011;20737;49.908;8.126;2023-04-15T14:32:07;1.95;;;1.02;;
34491;SDS011;20737;49.908;8.126;2023-04-15T14:34:34;1.63;;;0.80;;
34491;SDS011;20737;49.908;8.126;2023-04-15T14:37:01;2.92;;;1.10;;
34491;SDS011;20737;49.908;8.126;2023-04-15T14:39:29;0.95;;;0.80;;
34491;SDS011;20737;49.908;8.126;2023-04-15T14:41:55;1.40;;;1.00;;
34491;SDS011;20737;49.908;8.126;2023-04-15T14:44:23;1.20;;;1.08;;
34491;SDS011;20737;49.908;8.126;2023-04-15T14:46:50;1.15;;;1.05;;
34491;SDS011;20737;49.908;8.126;2023-04-15T14:49:17;1.45;;;1.00;;
34491;SDS011;20737;49.908;8.126;2023-04-15T14:51:44;1.48;;;1.30;;
34491;SDS011;20737;49.908;8.126;2023-04-15T14:54:11;1.15;;;1.02;;
34491;SDS011;20737;49.908;8.126;2023-04-15T14:56:38;1.65;;;1.40;;
34491;SDS011;20737;49.908;8.126;2023-04-15T14:59:05;2.13;;;1.58;;
34491;SDS011;20737;49.908;8.126;2023-04-15T15:01:33;1.52;;;1.42;;
34491;SDS011;20737;49.908;8.126;2023-04-15T15:04:00;1.60;;;1.48;;